createdAt,value
2018-12-16T00:00:59.148Z,21.97
2018-12-16T00:03:29.830Z,22.13
2018-12-16T00:06:00.916Z,22.63
2018-12-16T00:08:29.767Z,21.20
2018-12-16T00:10:58.590Z,21.43
2018-12-16T00:13:27.346Z,22.37
2018-12-16T00:15:56.194Z,22.00
2018-12-16T00:18:25.013Z,22.90
2018-12-16T00:20:53.846Z,21.77
2018-12-16T00:23:22.799Z,21.50
2018-12-16T00:25:51.622Z,22.13
2018-12-16T00:28:20.386Z,22.20
2018-12-16T00:30:49.334Z,22.33
2018-12-16T00:33:18.127Z,22.17
2018-12-16T00:35:46.909Z,22.93
2018-12-16T00:38:15.670Z,22.23
2018-12-16T00:40:44.459Z,22.17
2018-12-16T00:43:13.272Z,22.77
2018-12-16T00:45:42.118Z,22.13
2018-12-16T00:48:10.990Z,22.00
2018-12-16T00:50:39.795Z,22.27
2018-12-16T00:53:08.633Z,21.23
2018-12-16T00:55:37.460Z,21.77
2018-12-16T00:58:06.327Z,22.07
2018-12-16T01:00:35.164Z,22.03
2018-12-16T01:03:04.005Z,20.93
2018-12-16T01:05:32.836Z,21.80
2018-12-16T01:08:01.652Z,21.93
2018-12-16T01:10:31.515Z,20.77
2018-12-16T01:13:00.358Z,21.47
2018-12-16T01:15:29.280Z,19.67
2018-12-16T01:17:58.114Z,19.50
2018-12-16T01:20:27.038Z,20.60
2018-12-16T01:22:55.820Z,20.30
2018-12-16T01:25:24.673Z,20.43
2018-12-16T01:27:53.539Z,19.57
2018-12-16T01:30:22.491Z,20.17
2018-12-16T01:32:51.324Z,19.70
2018-12-16T01:35:20.178Z,19.23
2018-12-16T01:37:48.926Z,18.80
2018-12-16T01:40:17.857Z,19.63
2018-12-16T01:42:46.662Z,19.77
2018-12-16T01:45:15.469Z,18.30
2018-12-16T01:47:44.299Z,19.83
2018-12-16T01:50:13.159Z,19.00
2018-12-16T01:52:42.063Z,20.23
2018-12-16T01:55:10.824Z,19.37
2018-12-16T01:57:39.678Z,19.53
2018-12-16T02:00:09.882Z,19.37
2018-12-16T02:02:39.745Z,19.00
2018-12-16T02:05:08.613Z,18.70
2018-12-16T02:07:37.537Z,18.63
2018-12-16T02:10:06.439Z,20.20
2018-12-16T02:12:35.153Z,18.33
2018-12-16T02:15:04.136Z,19.03
2018-12-16T02:17:32.937Z,19.83
2018-12-16T02:20:01.758Z,19.83
2018-12-16T02:22:30.588Z,19.27
2018-12-16T02:24:59.361Z,20.03
2018-12-16T02:27:28.187Z,19.43
2018-12-16T02:29:56.933Z,20.13
2018-12-16T02:32:25.810Z,19.50
2018-12-16T02:34:55.576Z,20.33
2018-12-16T02:37:24.356Z,19.83
2018-12-16T02:39:53.185Z,19.63
2018-12-16T02:42:22.931Z,20.30
2018-12-16T02:44:51.740Z,18.83
2018-12-16T02:47:20.805Z,20.07
2018-12-16T02:49:50.701Z,20.90
2018-12-16T02:52:19.487Z,19.10
2018-12-16T02:54:48.307Z,20.03
2018-12-16T02:57:17.076Z,19.37
2018-12-16T02:59:45.827Z,19.37
2018-12-16T03:02:14.666Z,20.13
2018-12-16T03:04:43.472Z,19.53
2018-12-16T03:07:12.307Z,19.70
2018-12-16T03:09:41.193Z,20.03
2018-12-16T03:12:10.179Z,18.87
2018-12-16T03:14:38.972Z,20.03
2018-12-16T03:17:07.836Z,19.67
2018-12-16T03:19:36.666Z,21.23
2018-12-16T03:22:05.529Z,19.73
2018-12-16T03:24:34.440Z,20.47
2018-12-16T03:27:03.282Z,21.17
2018-12-16T03:29:32.142Z,22.10
2018-12-16T03:32:00.937Z,21.97
2018-12-16T03:34:29.789Z,23.57
2018-12-16T03:36:58.623Z,21.13
2018-12-16T03:39:27.540Z,22.70
2018-12-16T03:41:56.527Z,21.77
2018-12-16T03:44:25.318Z,24.57
2018-12-16T03:46:54.142Z,22.37
2018-12-16T03:49:23.017Z,22.90
2018-12-16T03:51:51.889Z,21.90
2018-12-16T03:54:20.630Z,23.83
2018-12-16T03:56:49.412Z,24.90
2018-12-16T03:59:19.494Z,23.97
2018-12-16T04:01:53.721Z,24.90
2018-12-16T04:04:22.602Z,26.53
2018-12-16T04:06:52.631Z,24.80
2018-12-16T04:09:21.506Z,25.27
2018-12-16T04:11:50.437Z,26.47
2018-12-16T04:14:19.271Z,27.43
2018-12-16T04:16:50.018Z,28.07
2018-12-16T04:19:18.870Z,26.93
2018-12-16T04:21:47.852Z,23.97
2018-12-16T04:24:16.590Z,22.83
2018-12-16T04:26:45.383Z,22.90
2018-12-16T04:29:14.224Z,19.40
2018-12-16T04:31:43.097Z,23.30
2018-12-16T04:34:11.833Z,22.40
2018-12-16T04:36:40.608Z,25.83
2018-12-16T04:39:09.444Z,26.40
2018-12-16T04:41:38.736Z,29.80
2018-12-16T04:44:07.687Z,30.80
2018-12-16T04:46:36.510Z,29.60
2018-12-16T04:49:05.499Z,30.07
2018-12-16T04:51:34.310Z,28.50
2018-12-16T04:54:03.094Z,27.33
2018-12-16T04:56:32.034Z,25.67
2018-12-16T04:59:00.866Z,23.20
2018-12-16T05:01:29.763Z,23.90
2018-12-16T05:03:58.459Z,20.33
2018-12-16T05:06:27.169Z,20.80
2018-12-16T05:08:55.902Z,19.40
2018-12-16T05:11:24.682Z,20.13
2018-12-16T05:13:53.475Z,17.37
2018-12-16T05:16:22.249Z,18.83
2018-12-16T05:18:51.120Z,19.00
2018-12-16T05:21:19.863Z,16.40
2018-12-16T05:23:48.692Z,17.30
2018-12-16T05:26:17.538Z,16.67
2018-12-16T05:28:46.334Z,17.23
2018-12-16T05:31:15.205Z,18.07
2018-12-16T05:33:44.029Z,17.60
2018-12-16T05:36:13.097Z,16.73
2018-12-16T05:38:41.872Z,16.57
2018-12-16T05:41:10.685Z,17.53
2018-12-16T05:43:39.491Z,15.80
2018-12-16T05:46:08.184Z,18.33
2018-12-16T05:48:36.991Z,18.30
2018-12-16T05:51:05.810Z,17.17
2018-12-16T05:53:35.707Z,17.30
2018-12-16T05:56:04.551Z,17.13
2018-12-16T05:58:33.257Z,18.33
2018-12-16T06:01:02.084Z,17.57
2018-12-16T06:03:30.855Z,16.80
2018-12-16T06:05:59.579Z,18.10
2018-12-16T06:08:28.368Z,18.83
2018-12-16T06:10:57.146Z,16.43
2018-12-16T06:13:25.905Z,17.97
2018-12-16T06:15:54.745Z,17.63
2018-12-16T06:18:23.452Z,17.20
2018-12-16T06:20:52.313Z,16.20
2018-12-16T06:23:21.056Z,16.93
2018-12-16T06:25:49.907Z,16.63
2018-12-16T06:28:18.705Z,17.90
2018-12-16T06:30:47.881Z,16.50
2018-12-16T06:33:16.743Z,17.73
2018-12-16T06:35:45.586Z,16.93
2018-12-16T06:38:14.425Z,17.63
2018-12-16T06:40:43.439Z,17.82
2018-12-16T06:43:12.271Z,17.50
2018-12-16T06:45:41.078Z,17.93
2018-12-16T06:48:09.997Z,17.73
2018-12-16T06:50:38.827Z,17.63
2018-12-16T06:53:07.652Z,18.93
2018-12-16T06:55:43.083Z,18.27
2018-12-16T06:58:07.154Z,17.60
2018-12-16T07:00:35.940Z,18.27
2018-12-16T07:03:04.759Z,18.43
2018-12-16T07:05:33.612Z,17.63
2018-12-16T07:08:02.295Z,17.47
2018-12-16T07:10:31.124Z,18.40
2018-12-16T07:12:59.883Z,17.80
2018-12-16T07:15:28.766Z,15.43
2018-12-16T07:17:57.561Z,16.73
2018-12-16T07:20:26.419Z,16.13
2018-12-16T07:22:55.169Z,14.90
2018-12-16T07:25:23.932Z,16.13
2018-12-16T07:27:52.709Z,16.13
2018-12-16T07:30:21.506Z,14.40
2018-12-16T07:32:50.273Z,15.17
2018-12-16T07:35:19.068Z,15.10
2018-12-16T07:37:47.984Z,15.63
2018-12-16T07:40:16.830Z,14.60
2018-12-16T07:42:45.699Z,15.23
2018-12-16T07:45:14.594Z,15.57
2018-12-16T07:47:43.454Z,13.90
2018-12-16T07:50:12.421Z,13.93
2018-12-16T07:52:41.269Z,15.20
2018-12-16T07:55:10.120Z,14.17
2018-12-16T07:57:39.419Z,15.63
2018-12-16T08:00:10.346Z,15.23
2018-12-16T08:02:39.057Z,14.87
2018-12-16T08:05:08.826Z,15.00
2018-12-16T08:07:37.629Z,14.10
2018-12-16T08:10:06.494Z,15.47
2018-12-16T08:12:35.294Z,15.07
2018-12-16T08:15:04.822Z,15.60
2018-12-16T08:17:33.629Z,15.37
2018-12-16T08:20:02.500Z,14.73
2018-12-16T08:22:31.213Z,16.87
2018-12-16T08:25:00.015Z,15.77
2018-12-16T08:27:28.751Z,15.50
2018-12-16T08:29:57.535Z,16.43
2018-12-16T08:32:26.363Z,17.37
2018-12-16T08:34:55.185Z,15.97
2018-12-16T08:37:23.910Z,15.60
2018-12-16T08:39:52.670Z,16.10
2018-12-16T08:42:21.423Z,16.83
2018-12-16T08:44:50.186Z,17.20
2018-12-16T08:47:19.030Z,16.37
2018-12-16T08:49:47.766Z,16.67
2018-12-16T08:52:17.281Z,16.23
2018-12-16T08:54:46.068Z,16.23
2018-12-16T08:57:15.106Z,17.20
2018-12-16T08:59:43.943Z,16.73
2018-12-16T09:02:12.989Z,15.77
2018-12-16T09:04:41.920Z,16.23
2018-12-16T09:07:10.657Z,16.03
2018-12-16T09:09:39.559Z,17.33
2018-12-16T09:12:08.373Z,16.23
2018-12-16T09:14:37.242Z,16.50
2018-12-16T09:17:06.151Z,16.23
2018-12-16T09:19:34.982Z,14.90
2018-12-16T09:22:03.841Z,14.67
2018-12-16T09:24:37.232Z,13.77
2018-12-16T09:27:03.499Z,12.23
2018-12-16T09:29:32.357Z,11.83
2018-12-16T09:32:02.779Z,11.37
2018-12-16T09:34:31.726Z,11.50
2018-12-16T09:37:00.560Z,11.30
2018-12-16T09:39:29.359Z,10.77
2018-12-16T09:41:58.229Z,10.83
2018-12-16T09:44:27.161Z,11.03
2018-12-16T09:46:55.999Z,10.43
2018-12-16T09:49:25.459Z,11.47
2018-12-16T09:51:54.337Z,11.73
2018-12-16T09:54:23.180Z,11.10
2018-12-16T09:56:51.990Z,12.83
2018-12-16T09:59:20.997Z,11.33
2018-12-16T10:01:49.750Z,11.63
2018-12-16T10:04:18.572Z,11.57
2018-12-16T10:06:48.450Z,11.33
2018-12-16T10:09:20.380Z,12.07
2018-12-16T10:11:49.085Z,11.87
2018-12-16T10:14:17.898Z,12.33
2018-12-16T10:16:46.721Z,12.87
2018-12-16T10:19:15.485Z,13.33
2018-12-16T10:21:44.213Z,12.83
2018-12-16T10:24:13.201Z,12.70
2018-12-16T10:26:42.194Z,12.53
2018-12-16T10:29:10.931Z,11.87
2018-12-16T10:31:39.827Z,11.50
2018-12-16T10:34:08.697Z,12.50
2018-12-16T10:36:37.993Z,12.20
2018-12-16T10:39:07.629Z,11.97
2018-12-16T10:41:38.446Z,11.80
2018-12-16T10:44:07.215Z,12.47
2018-12-16T10:46:35.956Z,11.50
2018-12-16T10:49:04.988Z,10.73
2018-12-16T10:51:33.897Z,10.90
2018-12-16T10:54:02.718Z,11.67
2018-12-16T10:56:31.433Z,11.70
2018-12-16T10:59:00.271Z,11.50
2018-12-16T11:01:29.438Z,11.07
2018-12-16T11:03:58.288Z,11.50
2018-12-16T11:06:27.142Z,12.40
2018-12-16T11:08:56.338Z,11.30
2018-12-16T11:11:25.142Z,12.00
2018-12-16T11:13:53.929Z,11.67
2018-12-16T11:16:22.806Z,11.90
2018-12-16T11:18:51.648Z,12.57
2018-12-16T11:21:20.500Z,13.13
2018-12-16T11:23:53.779Z,12.67
2018-12-16T11:26:20.220Z,13.00
2018-12-16T11:28:49.192Z,12.93
2018-12-16T11:31:17.931Z,13.27
2018-12-16T11:33:46.834Z,12.17
2018-12-16T11:36:15.645Z,13.63
2018-12-16T11:38:44.574Z,14.70
2018-12-16T11:41:13.466Z,14.33
2018-12-16T11:43:42.383Z,13.93
2018-12-16T11:46:11.181Z,13.60
2018-12-16T11:48:40.038Z,14.40
2018-12-16T11:51:08.872Z,14.13
2018-12-16T11:53:37.629Z,14.80
2018-12-16T11:56:06.466Z,15.00
2018-12-16T11:58:35.287Z,15.37
2018-12-16T12:01:04.077Z,15.80
2018-12-16T12:03:33.027Z,15.40
2018-12-16T12:06:03.757Z,15.40
2018-12-16T12:08:32.634Z,16.23
2018-12-16T12:11:01.393Z,15.13
2018-12-16T12:13:30.151Z,15.97
2018-12-16T12:15:58.968Z,15.20
2018-12-16T12:18:27.744Z,16.40
2018-12-16T12:20:57.752Z,16.17
2018-12-16T12:23:26.525Z,15.13
2018-12-16T12:25:55.341Z,16.13
2018-12-16T12:28:24.617Z,15.60
2018-12-16T12:30:53.433Z,16.63
2018-12-16T12:33:22.327Z,16.60
2018-12-16T12:35:51.087Z,17.40
2018-12-16T12:38:19.827Z,17.23
2018-12-16T12:40:48.699Z,15.77
2018-12-16T12:43:17.594Z,16.40
2018-12-16T12:45:46.549Z,16.70
2018-12-16T12:48:15.320Z,16.70
2018-12-16T12:50:44.139Z,16.87
2018-12-16T12:53:13.035Z,17.07
2018-12-16T12:55:41.842Z,17.03
2018-12-16T12:58:10.544Z,18.47
2018-12-16T13:00:39.398Z,17.23
2018-12-16T13:03:08.257Z,17.63
2018-12-16T13:05:37.215Z,17.33
2018-12-16T13:08:05.947Z,18.40
2018-12-16T13:10:34.687Z,16.80
2018-12-16T13:13:03.489Z,17.53
2018-12-16T13:15:32.273Z,16.83
2018-12-16T13:18:01.184Z,17.07
2018-12-16T13:20:30.029Z,17.00
2018-12-16T13:22:59.952Z,17.30
2018-12-16T13:25:40.085Z,18.13
2018-12-16T13:28:09.144Z,17.97
2018-12-16T13:30:37.944Z,18.33
2018-12-16T13:33:06.772Z,17.73
2018-12-16T13:35:35.548Z,17.70
2018-12-16T13:38:05.198Z,18.87
2018-12-16T13:40:33.940Z,16.87
2018-12-16T13:43:02.810Z,16.63
2018-12-16T13:45:31.734Z,16.40
2018-12-16T13:48:00.486Z,16.63
2018-12-16T13:50:29.238Z,17.27
2018-12-16T13:52:58.062Z,17.77
2018-12-16T13:55:27.869Z,16.77
2018-12-16T13:57:56.942Z,17.00
2018-12-16T14:00:25.815Z,17.90
2018-12-16T14:02:54.640Z,17.43
2018-12-16T14:05:23.371Z,18.33
2018-12-16T14:07:52.161Z,18.70
2018-12-16T14:10:20.992Z,18.20
2018-12-16T14:12:49.834Z,15.77
2018-12-16T14:15:18.558Z,18.30
2018-12-16T14:17:47.373Z,19.37
2018-12-16T14:20:16.164Z,19.53
2018-12-16T14:22:45.011Z,19.03
2018-12-16T14:25:13.928Z,19.37
2018-12-16T14:27:42.718Z,19.07
2018-12-16T14:30:12.108Z,17.17
2018-12-16T14:32:41.986Z,18.17
2018-12-16T14:35:11.723Z,18.23
2018-12-16T14:37:40.564Z,17.10
2018-12-16T14:40:10.235Z,18.43
2018-12-16T14:42:39.058Z,17.53
2018-12-16T14:45:09.449Z,16.83
2018-12-16T14:47:38.235Z,16.87
2018-12-16T14:50:09.566Z,17.40
2018-12-16T14:52:38.388Z,18.00
2018-12-16T14:55:07.952Z,17.87
2018-12-16T14:57:36.890Z,17.97
2018-12-16T15:00:08.552Z,18.33
2018-12-16T15:02:37.342Z,18.37
2018-12-16T15:05:07.315Z,18.43
2018-12-16T15:07:36.200Z,18.67
2018-12-16T15:10:07.309Z,17.90
2018-12-16T15:12:36.154Z,17.20
2018-12-16T15:15:05.440Z,17.70
2018-12-16T15:17:34.273Z,17.90
2018-12-16T15:20:03.438Z,17.77
2018-12-16T15:22:32.220Z,16.20
2018-12-16T15:25:00.957Z,17.50
2018-12-16T15:27:29.774Z,18.00
2018-12-16T15:29:58.488Z,16.93
2018-12-16T15:32:27.294Z,16.17
2018-12-16T15:34:56.185Z,17.67
2018-12-16T15:37:25.024Z,17.73
2018-12-16T15:39:53.844Z,17.80
2018-12-16T15:42:22.686Z,16.77
2018-12-16T15:44:51.421Z,17.80
2018-12-16T15:47:20.286Z,17.17
2018-12-16T15:49:49.030Z,17.10
2018-12-16T15:52:17.844Z,17.07
2018-12-16T15:54:46.698Z,18.13
2018-12-16T15:57:15.524Z,18.53
2018-12-16T15:59:44.242Z,16.97
2018-12-16T16:02:13.165Z,18.40
2018-12-16T16:04:42.061Z,17.87
2018-12-16T16:07:10.845Z,18.63
2018-12-16T16:09:39.558Z,18.47
2018-12-16T16:12:08.344Z,19.37
2018-12-16T16:14:37.138Z,18.33
2018-12-16T16:17:05.853Z,18.87
2018-12-16T16:19:34.647Z,18.87
2018-12-16T16:22:03.538Z,19.77
2018-12-16T16:24:32.370Z,18.40
2018-12-16T16:27:01.097Z,18.77
2018-12-16T16:29:29.986Z,18.17
2018-12-16T16:31:58.760Z,18.83
2018-12-16T16:34:27.567Z,17.53
2018-12-16T16:36:56.327Z,17.47
2018-12-16T16:39:25.106Z,17.97
2018-12-16T16:41:53.804Z,17.57
2018-12-16T16:44:22.671Z,17.97
2018-12-16T16:46:51.409Z,18.47
2018-12-16T16:49:20.257Z,18.87
2018-12-16T16:51:48.981Z,18.37
2018-12-16T16:54:17.740Z,17.43
2018-12-16T16:56:46.548Z,16.73
2018-12-16T16:59:15.281Z,17.37
2018-12-16T17:01:44.078Z,17.67
2018-12-16T17:04:13.068Z,17.40
2018-12-16T17:06:41.891Z,16.87
2018-12-16T17:09:10.799Z,16.83
2018-12-16T17:11:39.780Z,17.83
2018-12-16T17:14:08.539Z,17.77
2018-12-16T17:16:37.340Z,18.30
2018-12-16T17:19:06.653Z,18.53
2018-12-16T17:21:35.966Z,18.20
2018-12-16T17:24:04.805Z,17.80
2018-12-16T17:26:33.609Z,17.80
2018-12-16T17:29:02.501Z,18.00
2018-12-16T17:31:31.247Z,18.10
2018-12-16T17:34:00.038Z,16.30
2018-12-16T17:36:28.894Z,18.13
2018-12-16T17:38:57.696Z,17.17
2018-12-16T17:41:26.723Z,17.87
2018-12-16T17:43:55.494Z,17.10
2018-12-16T17:46:24.246Z,16.57
2018-12-16T17:48:52.989Z,17.73
2018-12-16T17:51:22.849Z,17.93
2018-12-16T17:53:51.741Z,17.43
2018-12-16T17:56:20.534Z,17.73
2018-12-16T17:58:49.334Z,17.30
2018-12-16T18:01:18.294Z,16.83
2018-12-16T18:03:47.113Z,17.13
2018-12-16T18:06:15.966Z,16.27
2018-12-16T18:08:44.822Z,15.37
2018-12-16T18:11:13.773Z,16.50
2018-12-16T18:13:43.612Z,16.40
2018-12-16T18:16:12.568Z,15.70
2018-12-16T18:18:41.340Z,15.83
2018-12-16T18:21:11.121Z,15.03
2018-12-16T18:23:39.978Z,15.03
2018-12-16T18:26:08.714Z,15.47
2018-12-16T18:28:37.550Z,15.33
2018-12-16T18:31:06.426Z,15.47
2018-12-16T18:33:35.286Z,15.30
2018-12-16T18:36:04.234Z,15.67
2018-12-16T18:38:33.058Z,14.63
2018-12-16T18:41:01.931Z,14.60
2018-12-16T18:43:30.732Z,15.80
2018-12-16T18:45:59.585Z,16.13
2018-12-16T18:48:28.489Z,15.00
2018-12-16T18:50:57.374Z,15.47
2018-12-16T18:53:26.197Z,15.30
2018-12-16T18:55:55.069Z,15.30
2018-12-16T18:58:24.023Z,16.53
2018-12-16T19:00:52.854Z,14.93
2018-12-16T19:03:21.730Z,14.97
2018-12-16T19:05:50.538Z,14.50
2018-12-16T19:08:19.339Z,15.40
2018-12-16T19:10:48.215Z,14.63
2018-12-16T19:13:17.059Z,15.27
2018-12-16T19:15:45.911Z,15.17
2018-12-16T19:18:14.667Z,14.93
2018-12-16T19:20:43.573Z,13.57
2018-12-16T19:23:12.465Z,14.53
2018-12-16T19:25:42.361Z,14.77
2018-12-16T19:28:11.416Z,14.87
2018-12-16T19:30:40.287Z,14.60
2018-12-16T19:33:09.006Z,14.93
2018-12-16T19:35:37.851Z,16.00
2018-12-16T19:38:06.667Z,14.70
2018-12-16T19:40:35.512Z,15.63
2018-12-16T19:43:04.402Z,16.33
2018-12-16T19:45:33.155Z,14.47
2018-12-16T19:48:01.986Z,15.73
2018-12-16T19:50:30.866Z,14.70
2018-12-16T19:52:59.707Z,15.60
2018-12-16T19:55:29.382Z,16.73
2018-12-16T19:57:58.170Z,17.00
2018-12-16T20:00:27.045Z,15.50
2018-12-16T20:02:55.998Z,15.50
2018-12-16T20:05:24.841Z,15.90
2018-12-16T20:07:53.618Z,16.27
2018-12-16T20:10:22.446Z,15.97
2018-12-16T20:12:51.166Z,17.03
2018-12-16T20:15:19.970Z,16.13
2018-12-16T20:17:48.784Z,15.70
2018-12-16T20:20:17.609Z,17.10
2018-12-16T20:22:46.369Z,17.20
2018-12-16T20:25:15.166Z,17.63
2018-12-16T20:27:44.003Z,16.80
2018-12-16T20:30:12.845Z,16.90
2018-12-16T20:32:41.681Z,17.00
2018-12-16T20:35:10.664Z,17.70
2018-12-16T20:37:39.929Z,17.13
2018-12-16T20:40:08.782Z,18.00
2018-12-16T20:42:38.734Z,17.43
2018-12-16T20:45:07.917Z,17.40
2018-12-16T20:47:36.634Z,16.90
2018-12-16T20:50:05.990Z,17.67
2018-12-16T20:52:34.842Z,16.73
2018-12-16T20:55:03.802Z,17.87
2018-12-16T20:57:32.589Z,17.60
2018-12-16T21:00:01.469Z,17.93
2018-12-16T21:02:30.267Z,17.00
2018-12-16T21:04:59.058Z,18.07
2018-12-16T21:07:27.974Z,16.27
2018-12-16T21:09:56.837Z,18.37
2018-12-16T21:12:31.114Z,17.10
2018-12-16T21:15:05.432Z,17.00
2018-12-16T21:17:39.518Z,18.43
2018-12-16T21:20:08.533Z,17.63
2018-12-16T21:22:37.367Z,18.90
2018-12-16T21:25:06.205Z,18.07
2018-12-16T21:27:35.449Z,17.00
2018-12-16T21:30:04.790Z,18.23
2018-12-16T21:32:34.565Z,16.97
2018-12-16T21:35:03.466Z,17.20
2018-12-16T21:37:33.326Z,17.57
2018-12-16T21:40:02.190Z,17.33
2018-12-16T21:42:32.076Z,19.20
2018-12-16T21:45:01.007Z,17.77
2018-12-16T21:47:30.962Z,18.60
2018-12-16T21:49:59.731Z,18.10
2018-12-16T21:52:28.585Z,17.83
2018-12-16T21:54:57.325Z,17.97
2018-12-16T21:57:32.850Z,17.40
2018-12-16T21:59:56.880Z,18.30
2018-12-16T22:02:25.806Z,18.33
2018-12-16T22:04:54.698Z,18.00
2018-12-16T22:07:23.525Z,17.50
2018-12-16T22:09:52.235Z,19.13
2018-12-16T22:12:20.989Z,18.37
2018-12-16T22:14:49.697Z,17.97
2018-12-16T22:17:18.512Z,18.17
2018-12-16T22:19:47.312Z,18.33
2018-12-16T22:22:16.089Z,17.77
2018-12-16T22:24:44.891Z,18.83
2018-12-16T22:27:13.678Z,17.70
2018-12-16T22:29:42.482Z,17.97
2018-12-16T22:32:11.255Z,17.43
2018-12-16T22:34:40.102Z,17.63
2018-12-16T22:37:09.062Z,17.00
2018-12-16T22:39:37.842Z,19.17
2018-12-16T22:42:07.251Z,19.13
2018-12-16T22:44:36.097Z,17.47
2018-12-16T22:47:04.977Z,17.77
2018-12-16T22:49:34.779Z,17.80
2018-12-16T22:52:03.537Z,18.03
2018-12-16T22:54:32.294Z,18.37
2018-12-16T22:57:01.001Z,17.30
2018-12-16T22:59:29.795Z,17.60
2018-12-16T23:01:58.515Z,18.10
2018-12-16T23:04:27.410Z,18.67
2018-12-16T23:06:56.178Z,18.03
2018-12-16T23:09:25.031Z,17.60
2018-12-16T23:11:53.818Z,18.80
2018-12-16T23:14:22.710Z,19.27
2018-12-16T23:16:51.655Z,17.70
2018-12-16T23:19:20.490Z,17.23
2018-12-16T23:21:49.318Z,17.43
2018-12-16T23:24:18.208Z,18.33
2018-12-16T23:26:47.060Z,18.40
2018-12-16T23:29:15.776Z,18.13
2018-12-16T23:31:44.608Z,18.50
2018-12-16T23:34:13.485Z,17.97
2018-12-16T23:36:42.409Z,17.83
2018-12-16T23:39:11.280Z,17.60
2018-12-16T23:41:39.998Z,18.00
2018-12-16T23:44:08.742Z,18.23
2018-12-16T23:46:37.566Z,17.83
2018-12-16T23:49:06.389Z,18.33
2018-12-16T23:51:35.167Z,18.17
2018-12-16T23:54:04.022Z,18.33
2018-12-16T23:56:32.765Z,17.83
2018-12-16T23:59:01.609Z,17.60
